createdAt,value
2017-11-04T00:00:34.767Z,53.10
2017-11-04T00:02:37.447Z,58.27
2017-11-04T00:04:40.113Z,54.40
2017-11-04T00:06:43.004Z,54.33
2017-11-04T00:08:45.653Z,55.20
2017-11-04T00:10:49.198Z,45.70
2017-11-04T00:12:51.864Z,59.20
2017-11-04T00:14:54.529Z,48.67
2017-11-04T00:16:57.182Z,53.90
2017-11-04T00:18:59.931Z,52.50
2017-11-04T00:21:02.580Z,49.73
2017-11-04T00:23:05.288Z,52.00
2017-11-04T00:25:08.070Z,57.03
2017-11-04T00:27:10.723Z,51.53
2017-11-04T00:29:13.382Z,55.83
2017-11-04T00:31:16.065Z,51.40
2017-11-04T00:33:18.718Z,46.57
2017-11-04T00:35:21.388Z,60.10
2017-11-04T00:37:24.063Z,52.97
2017-11-04T00:39:26.708Z,46.70
2017-11-04T00:41:30.124Z,47.27
2017-11-04T00:43:32.824Z,61.70
2017-11-04T00:45:35.467Z,58.57
2017-11-04T00:47:38.138Z,49.77
2017-11-04T00:49:41.659Z,56.50
2017-11-04T00:51:44.293Z,48.83
2017-11-04T00:53:46.954Z,61.70
2017-11-04T00:55:49.637Z,51.30
2017-11-04T00:57:52.281Z,47.20
2017-11-04T00:59:55.008Z,50.97
2017-11-04T01:01:58.444Z,52.23
2017-11-04T01:04:01.088Z,51.07
2017-11-04T01:06:04.543Z,68.97
2017-11-04T01:08:07.211Z,59.40
2017-11-04T01:10:09.957Z,46.90
2017-11-04T01:12:12.649Z,51.40
2017-11-04T01:14:15.289Z,40.57
2017-11-04T01:16:17.978Z,54.50
2017-11-04T01:18:20.678Z,46.97
2017-11-04T01:20:23.345Z,48.30
2017-11-04T01:22:26.003Z,49.03
2017-11-04T01:24:28.695Z,44.73
2017-11-04T01:26:31.354Z,52.97
2017-11-04T01:28:33.997Z,47.77
2017-11-04T01:30:36.717Z,49.90
2017-11-04T01:32:39.383Z,45.63
2017-11-04T01:34:42.037Z,50.57
2017-11-04T01:36:45.485Z,45.83
2017-11-04T01:38:48.474Z,44.93
2017-11-04T01:40:51.216Z,59.57
2017-11-04T01:42:53.907Z,47.00
2017-11-04T01:44:56.576Z,51.53
2017-11-04T01:46:59.290Z,64.77
2017-11-04T01:49:01.937Z,45.10
2017-11-04T01:51:04.638Z,49.60
2017-11-04T01:53:07.354Z,53.13
2017-11-04T01:55:10.775Z,53.90
2017-11-04T01:57:13.439Z,44.63
2017-11-04T01:59:16.922Z,43.77
2017-11-04T02:01:20.437Z,47.77
2017-11-04T02:03:23.166Z,43.67
2017-11-04T02:05:28.891Z,41.30
2017-11-04T02:07:31.571Z,44.40
2017-11-04T02:09:34.379Z,49.27
2017-11-04T02:11:37.079Z,45.90
2017-11-04T02:13:40.529Z,48.33
2017-11-04T02:15:43.184Z,44.83
2017-11-04T02:17:45.865Z,47.83
2017-11-04T02:19:48.539Z,42.33
2017-11-04T02:21:51.302Z,50.07
2017-11-04T02:23:54.078Z,47.97
2017-11-04T02:25:56.746Z,53.53
2017-11-04T02:27:59.399Z,40.70
2017-11-04T02:30:02.969Z,43.47
2017-11-04T02:32:05.641Z,46.80
2017-11-04T02:34:08.312Z,45.57
2017-11-04T02:36:11.020Z,43.40
2017-11-04T02:38:14.462Z,46.20
2017-11-04T02:40:17.114Z,44.33
2017-11-04T02:42:19.793Z,42.93
2017-11-04T02:44:22.438Z,46.67
2017-11-04T02:46:25.092Z,45.67
2017-11-04T02:48:27.778Z,45.17
2017-11-04T02:50:30.433Z,41.53
2017-11-04T02:52:33.189Z,44.57
2017-11-04T02:54:35.883Z,45.70
2017-11-04T02:56:38.556Z,44.73
2017-11-04T02:58:41.258Z,41.30
2017-11-04T03:00:43.929Z,48.80
2017-11-04T03:02:46.615Z,49.40
2017-11-04T03:04:49.318Z,43.30
2017-11-04T03:06:52.754Z,43.50
2017-11-04T03:08:55.424Z,42.40
2017-11-04T03:10:58.066Z,49.40
2017-11-04T03:13:01.582Z,54.20
2017-11-04T03:15:04.263Z,47.77
2017-11-04T03:17:06.949Z,44.90
2017-11-04T03:19:09.635Z,43.80
2017-11-04T03:21:12.322Z,42.43
2017-11-04T03:23:15.052Z,45.53
2017-11-04T03:25:17.720Z,44.83
2017-11-04T03:27:21.237Z,51.20
2017-11-04T03:29:23.910Z,42.30
2017-11-04T03:31:26.592Z,39.87
2017-11-04T03:33:29.259Z,44.13
2017-11-04T03:35:31.987Z,48.20
2017-11-04T03:37:34.650Z,44.03
2017-11-04T03:39:37.313Z,42.37
2017-11-04T03:41:39.985Z,40.20
2017-11-04T03:43:42.655Z,52.10
2017-11-04T03:45:45.320Z,43.10
2017-11-04T03:47:48.099Z,40.13
2017-11-04T03:49:50.773Z,46.03
2017-11-04T03:51:53.553Z,47.57
2017-11-04T03:53:56.216Z,42.43
2017-11-04T03:55:58.861Z,39.20
2017-11-04T03:58:01.514Z,38.57
2017-11-04T04:00:06.205Z,45.13
2017-11-04T04:02:08.881Z,40.33
2017-11-04T04:04:11.537Z,42.30
2017-11-04T04:06:14.208Z,40.20
2017-11-04T04:08:17.631Z,41.33
2017-11-04T04:10:20.390Z,48.50
2017-11-04T04:12:23.079Z,39.37
2017-11-04T04:14:25.754Z,45.20
2017-11-04T04:16:28.422Z,45.87
2017-11-04T04:18:31.089Z,44.60
2017-11-04T04:20:33.733Z,49.77
2017-11-04T04:22:36.428Z,40.00
2017-11-04T04:24:39.855Z,37.90
2017-11-04T04:26:42.519Z,43.57
2017-11-04T04:28:45.210Z,40.23
2017-11-04T04:30:47.873Z,43.30
2017-11-04T04:32:50.539Z,40.17
2017-11-04T04:34:53.986Z,41.40
2017-11-04T04:36:56.654Z,49.27
2017-11-04T04:38:59.319Z,44.13
2017-11-04T04:41:02.015Z,39.07
2017-11-04T04:43:04.719Z,39.67
2017-11-04T04:45:08.175Z,49.13
2017-11-04T04:47:10.935Z,40.67
2017-11-04T04:49:13.708Z,46.87
2017-11-04T04:51:16.478Z,39.37
2017-11-04T04:53:19.146Z,39.53
2017-11-04T04:55:21.804Z,47.27
2017-11-04T04:57:25.205Z,46.13
2017-11-04T04:59:28.654Z,41.77
2017-11-04T05:01:31.297Z,41.30
2017-11-04T05:03:33.956Z,37.77
2017-11-04T05:05:37.573Z,39.60
2017-11-04T05:07:40.247Z,42.87
2017-11-04T05:09:42.941Z,40.10
2017-11-04T05:11:45.590Z,44.00
2017-11-04T05:13:48.386Z,44.53
2017-11-04T05:15:51.067Z,42.50
2017-11-04T05:17:53.723Z,41.93
2017-11-04T05:19:56.399Z,47.20
2017-11-04T05:21:59.042Z,41.90
2017-11-04T05:24:01.686Z,35.80
2017-11-04T05:26:04.470Z,50.80
2017-11-04T05:28:07.215Z,39.87
2017-11-04T05:30:09.892Z,40.87
2017-11-04T05:32:12.557Z,43.53
2017-11-04T05:34:15.200Z,46.63
2017-11-04T05:36:18.014Z,42.00
2017-11-04T05:38:20.715Z,46.67
2017-11-04T05:40:23.362Z,49.13
2017-11-04T05:42:26.022Z,41.30
2017-11-04T05:44:29.480Z,45.30
2017-11-04T05:46:32.128Z,50.50
2017-11-04T05:48:34.788Z,41.27
2017-11-04T05:50:37.477Z,46.80
2017-11-04T05:52:40.136Z,45.83
2017-11-04T05:54:42.799Z,48.50
2017-11-04T05:56:46.359Z,48.07
2017-11-04T05:58:49.033Z,44.70
2017-11-04T06:00:51.708Z,47.60
2017-11-04T06:02:54.373Z,48.00
2017-11-04T06:04:57.122Z,49.83
2017-11-04T06:06:59.784Z,44.73
2017-11-04T06:09:03.278Z,41.80
2017-11-04T06:11:06.694Z,54.33
2017-11-04T06:13:09.337Z,50.20
2017-11-04T06:15:12.789Z,42.77
2017-11-04T06:17:15.453Z,46.13
2017-11-04T06:19:18.113Z,51.53
2017-11-04T06:21:20.844Z,48.10
2017-11-04T06:23:23.484Z,54.37
2017-11-04T06:25:26.121Z,49.53
2017-11-04T06:27:29.569Z,49.43
2017-11-04T06:29:32.237Z,43.97
2017-11-04T06:31:34.882Z,46.40
2017-11-04T06:33:37.561Z,51.87
2017-11-04T06:35:40.269Z,48.20
2017-11-04T06:37:42.991Z,53.33
2017-11-04T06:39:46.403Z,56.10
2017-11-04T06:41:49.068Z,45.23
2017-11-04T06:43:51.752Z,54.43
2017-11-04T06:45:54.406Z,48.03
2017-11-04T06:47:57.832Z,47.80
2017-11-04T06:50:00.523Z,53.20
2017-11-04T06:52:03.170Z,54.00
2017-11-04T06:54:05.884Z,54.00
2017-11-04T06:56:08.571Z,57.70
2017-11-04T06:58:11.209Z,55.43
2017-11-04T07:00:13.870Z,52.80
2017-11-04T07:02:16.557Z,51.43
2017-11-04T07:04:19.349Z,56.10
2017-11-04T07:06:22.122Z,63.03
2017-11-04T07:08:24.816Z,55.27
2017-11-04T07:10:27.452Z,50.77
2017-11-04T07:12:30.876Z,56.07
2017-11-04T07:14:33.566Z,55.37
2017-11-04T07:16:37.039Z,42.17
2017-11-04T07:18:39.686Z,46.93
2017-11-04T07:20:43.210Z,42.57
2017-11-04T07:22:45.871Z,46.67
2017-11-04T07:24:48.549Z,46.70
2017-11-04T07:26:51.223Z,45.83
2017-11-04T07:28:53.866Z,41.10
2017-11-04T07:30:56.540Z,42.97
2017-11-04T07:32:59.232Z,43.20
2017-11-04T07:35:02.657Z,41.67
2017-11-04T07:37:05.324Z,45.53
2017-11-04T07:39:08.038Z,42.53
2017-11-04T07:41:10.724Z,44.30
2017-11-04T07:43:13.365Z,50.27
2017-11-04T07:45:16.057Z,47.00
2017-11-04T07:47:18.738Z,43.20
2017-11-04T07:49:21.395Z,42.47
2017-11-04T07:51:24.121Z,44.90
2017-11-04T07:53:26.845Z,42.43
2017-11-04T07:55:29.524Z,47.57
2017-11-04T07:57:32.181Z,43.43
2017-11-04T07:59:34.822Z,47.07
2017-11-04T08:01:37.512Z,41.00
2017-11-04T08:03:40.940Z,40.33
2017-11-04T08:05:43.619Z,35.67
2017-11-04T08:07:46.398Z,30.30
2017-11-04T08:09:49.092Z,33.20
2017-11-04T08:11:51.766Z,33.47
2017-11-04T08:13:54.435Z,31.63
2017-11-04T08:15:57.112Z,35.10
2017-11-04T08:17:59.823Z,35.30
2017-11-04T08:20:02.464Z,31.47
2017-11-04T08:22:05.122Z,33.03
2017-11-04T08:24:07.812Z,31.90
2017-11-04T08:26:10.461Z,29.10
2017-11-04T08:28:13.886Z,35.83
2017-11-04T08:30:16.574Z,35.80
2017-11-04T08:32:19.319Z,31.80
2017-11-04T08:34:21.966Z,32.40
2017-11-04T08:36:25.411Z,42.60
2017-11-04T08:38:28.075Z,33.73
2017-11-04T08:40:30.753Z,29.70
2017-11-04T08:42:33.463Z,34.00
2017-11-04T08:44:36.152Z,43.43
2017-11-04T08:46:38.860Z,32.20
2017-11-04T08:48:41.555Z,34.40
2017-11-04T08:50:44.257Z,37.50
2017-11-04T08:52:47.006Z,35.33
2017-11-04T08:54:49.782Z,36.13
2017-11-04T08:56:52.441Z,32.07
2017-11-04T08:58:55.925Z,38.77
2017-11-04T09:00:59.401Z,33.23
2017-11-04T09:03:02.063Z,38.07
2017-11-04T09:05:05.498Z,32.90
2017-11-04T09:07:08.922Z,36.30
2017-11-04T09:09:12.356Z,31.03
2017-11-04T09:11:15.092Z,39.80
2017-11-04T09:13:17.786Z,34.93
2017-11-04T09:15:20.440Z,33.73
2017-11-04T09:17:23.133Z,32.33
2017-11-04T09:19:25.808Z,33.00
2017-11-04T09:21:28.457Z,35.50
2017-11-04T09:23:31.153Z,35.60
2017-11-04T09:25:33.882Z,39.20
2017-11-04T09:27:36.558Z,36.80
2017-11-04T09:29:41.458Z,38.03
2017-11-04T09:31:44.316Z,36.50
2017-11-04T09:33:46.993Z,47.07
2017-11-04T09:35:49.700Z,30.17
2017-11-04T09:37:52.344Z,35.57
2017-11-04T09:39:55.001Z,42.47
2017-11-04T09:41:57.680Z,40.67
2017-11-04T09:44:00.359Z,43.60
2017-11-04T09:46:03.059Z,33.03
2017-11-04T09:48:05.770Z,31.37
2017-11-04T09:50:08.494Z,34.60
2017-11-04T09:52:11.192Z,33.87
2017-11-04T09:54:13.887Z,33.90
2017-11-04T09:56:16.552Z,37.20
2017-11-04T09:58:19.245Z,43.17
2017-11-04T10:00:21.943Z,35.30
2017-11-04T10:02:25.398Z,33.90
2017-11-04T10:04:28.061Z,34.93
2017-11-04T10:06:30.754Z,35.40
2017-11-04T10:08:33.428Z,36.47
2017-11-04T10:10:36.093Z,34.90
2017-11-04T10:12:38.829Z,36.53
2017-11-04T10:14:42.351Z,34.20
2017-11-04T10:16:45.129Z,35.07
2017-11-04T10:18:47.913Z,39.87
2017-11-04T10:20:50.607Z,37.27
2017-11-04T10:22:53.273Z,33.93
2017-11-04T10:24:55.962Z,36.00
2017-11-04T10:26:58.636Z,33.43
2017-11-04T10:29:01.303Z,34.57
2017-11-04T10:31:04.019Z,41.10
2017-11-04T10:33:06.698Z,33.20
2017-11-04T10:35:09.425Z,33.37
2017-11-04T10:37:12.138Z,34.90
2017-11-04T10:39:14.784Z,31.53
2017-11-04T10:41:17.455Z,34.87
2017-11-04T10:43:20.126Z,34.63
2017-11-04T10:45:22.770Z,38.37
2017-11-04T10:47:26.189Z,36.53
2017-11-04T10:49:28.870Z,34.73
2017-11-04T10:51:31.540Z,33.87
2017-11-04T10:53:34.205Z,40.80
2017-11-04T10:55:36.882Z,32.70
2017-11-04T10:57:39.555Z,33.23
2017-11-04T10:59:42.207Z,38.10
2017-11-04T11:01:44.891Z,32.70
2017-11-04T11:03:48.309Z,34.60
2017-11-04T11:05:50.973Z,36.17
2017-11-04T11:07:54.835Z,39.70
2017-11-04T11:09:57.509Z,37.33
2017-11-04T11:12:00.177Z,32.97
2017-11-04T11:14:02.862Z,29.93
2017-11-04T11:16:05.546Z,31.50
2017-11-04T11:18:08.208Z,31.33
2017-11-04T11:20:10.886Z,33.47
2017-11-04T11:22:13.537Z,29.90
2017-11-04T11:24:16.200Z,35.83
2017-11-04T11:26:18.896Z,33.90
2017-11-04T11:28:21.545Z,38.23
2017-11-04T11:30:24.191Z,30.57
2017-11-04T11:32:26.876Z,35.27
2017-11-04T11:34:30.334Z,33.00
2017-11-04T11:36:33.771Z,28.90
2017-11-04T11:38:37.217Z,31.97
2017-11-04T11:40:39.904Z,34.70
2017-11-04T11:42:42.552Z,28.03
2017-11-04T11:44:45.226Z,26.87
2017-11-04T11:46:47.893Z,32.60
2017-11-04T11:48:50.571Z,27.00
2017-11-04T11:50:53.259Z,28.50
2017-11-04T11:52:55.927Z,23.60
2017-11-04T11:54:58.579Z,26.47
2017-11-04T11:57:02.019Z,28.63
2017-11-04T11:59:04.683Z,27.37
2017-11-04T12:01:07.330Z,23.70
2017-11-04T12:03:10.021Z,29.17
2017-11-04T12:05:12.691Z,33.57
2017-11-04T12:07:15.362Z,29.50
2017-11-04T12:09:18.056Z,29.53
2017-11-04T12:11:20.798Z,33.07
2017-11-04T12:13:24.227Z,26.83
2017-11-04T12:15:26.929Z,27.90
2017-11-04T12:17:29.573Z,26.90
2017-11-04T12:19:32.239Z,25.70
2017-11-04T12:21:34.996Z,27.30
2017-11-04T12:23:38.433Z,25.00
2017-11-04T12:25:41.199Z,22.30
2017-11-04T12:27:43.977Z,30.70
2017-11-04T12:29:46.643Z,23.33
2017-11-04T12:31:49.293Z,23.90
2017-11-04T12:33:52.762Z,29.83
2017-11-04T12:35:55.455Z,23.27
2017-11-04T12:37:58.115Z,24.63
2017-11-04T12:40:00.871Z,31.33
2017-11-04T12:42:03.540Z,24.03
2017-11-04T12:44:06.204Z,28.83
2017-11-04T12:46:08.889Z,22.47
2017-11-04T12:48:11.541Z,24.20
2017-11-04T12:50:14.200Z,21.17
2017-11-04T12:52:17.728Z,23.80
2017-11-04T12:54:20.403Z,23.27
2017-11-04T12:56:23.087Z,28.10
2017-11-04T12:58:25.783Z,22.27
2017-11-04T13:00:28.443Z,20.50
2017-11-04T13:02:31.115Z,20.40
2017-11-04T13:04:33.793Z,23.30
2017-11-04T13:06:36.438Z,25.00
2017-11-04T13:08:39.853Z,21.73
2017-11-04T13:10:42.570Z,25.57
2017-11-04T13:12:45.259Z,31.80
2017-11-04T13:14:47.918Z,24.10
2017-11-04T13:16:50.610Z,20.40
2017-11-04T13:18:53.258Z,26.93
2017-11-04T13:20:55.909Z,23.20
2017-11-04T13:22:58.660Z,24.27
2017-11-04T13:25:02.108Z,19.43
2017-11-04T13:27:05.575Z,32.13
2017-11-04T13:29:08.357Z,21.80
2017-11-04T13:31:11.014Z,19.67
2017-11-04T13:33:13.686Z,19.00
2017-11-04T13:35:17.124Z,24.57
2017-11-04T13:37:19.787Z,21.37
2017-11-04T13:39:22.447Z,15.80
2017-11-04T13:41:25.124Z,14.57
2017-11-04T13:43:27.766Z,10.93
2017-11-04T13:45:31.241Z,16.43
2017-11-04T13:47:33.920Z,11.23
2017-11-04T13:49:36.657Z,12.87
2017-11-04T13:51:39.334Z,12.10
2017-11-04T13:53:42.028Z,13.90
2017-11-04T13:55:44.699Z,14.03
2017-11-04T13:57:47.341Z,12.67
2017-11-04T13:59:51.088Z,14.50
2017-11-04T14:01:53.746Z,12.83
2017-11-04T14:03:56.398Z,11.73
2017-11-04T14:05:59.095Z,10.30
2017-11-04T14:08:01.771Z,12.60
2017-11-04T14:10:04.456Z,12.43
2017-11-04T14:12:07.147Z,11.90
2017-11-04T14:14:09.805Z,11.70
2017-11-04T14:16:12.495Z,9.37
2017-11-04T14:18:15.184Z,11.40
2017-11-04T14:20:17.845Z,9.50
2017-11-04T14:22:20.508Z,9.80
2017-11-04T14:24:23.178Z,9.93
2017-11-04T14:26:25.841Z,14.43
2017-11-04T14:28:28.489Z,10.37
2017-11-04T14:30:32.018Z,10.30
2017-11-04T14:32:34.662Z,9.67
2017-11-04T14:34:38.088Z,8.57
2017-11-04T14:36:40.751Z,6.43
2017-11-04T14:38:43.400Z,5.47
2017-11-04T14:40:46.831Z,8.97
2017-11-04T14:42:49.517Z,7.30
2017-11-04T14:44:52.166Z,5.73
2017-11-04T14:46:54.808Z,5.17
2017-11-04T14:48:57.557Z,9.90
2017-11-04T14:51:00.195Z,5.00
2017-11-04T14:53:02.836Z,6.30
2017-11-04T14:55:05.536Z,9.97
2017-11-04T14:57:08.959Z,8.37
2017-11-04T14:59:11.612Z,9.30
2017-11-04T15:01:15.130Z,8.40
2017-11-04T15:03:17.796Z,6.20
2017-11-04T15:05:20.585Z,6.83
2017-11-04T15:07:23.276Z,7.20
2017-11-04T15:09:25.950Z,6.90
2017-11-04T15:11:28.657Z,6.10
2017-11-04T15:13:31.341Z,7.87
2017-11-04T15:15:34.036Z,6.37
2017-11-04T15:17:37.457Z,5.90
2017-11-04T15:19:40.172Z,13.60
2017-11-04T15:21:42.813Z,7.87
2017-11-04T15:23:45.488Z,7.87
2017-11-04T15:25:48.156Z,8.40
2017-11-04T15:27:50.805Z,9.77
2017-11-04T15:29:54.222Z,8.20
2017-11-04T15:31:56.898Z,10.50
2017-11-04T15:33:59.756Z,11.80
2017-11-04T15:36:03.184Z,9.83
2017-11-04T15:38:05.868Z,6.70
2017-11-04T15:40:08.534Z,8.10
2017-11-04T15:42:11.190Z,6.90
2017-11-04T15:44:13.896Z,8.43
2017-11-04T15:46:16.545Z,6.87
2017-11-04T15:48:19.950Z,8.80
2017-11-04T15:50:22.660Z,12.43
2017-11-04T15:52:25.306Z,9.50
2017-11-04T15:54:27.950Z,6.93
2017-11-04T15:56:31.409Z,6.53
2017-11-04T15:58:34.050Z,8.90
2017-11-04T16:00:36.728Z,7.60
2017-11-04T16:02:39.413Z,7.13
2017-11-04T16:04:42.082Z,7.90
2017-11-04T16:06:44.732Z,8.80
2017-11-04T16:08:48.186Z,9.67
2017-11-04T16:10:50.935Z,6.23
2017-11-04T16:12:53.642Z,7.77
2017-11-04T16:14:56.801Z,8.13
2017-11-04T16:16:59.457Z,9.90
2017-11-04T16:19:02.149Z,7.80
2017-11-04T16:21:04.927Z,6.77
2017-11-04T16:23:07.588Z,7.10
2017-11-04T16:25:10.233Z,8.67
2017-11-04T16:27:12.980Z,7.60
2017-11-04T16:29:15.627Z,6.60
2017-11-04T16:31:18.296Z,8.40
2017-11-04T16:33:20.979Z,7.17
2017-11-04T16:35:24.183Z,8.97
2017-11-04T16:37:26.822Z,6.77
2017-11-04T16:39:30.292Z,8.53
2017-11-04T16:41:32.967Z,7.03
2017-11-04T16:43:35.633Z,7.10
2017-11-04T16:45:38.328Z,8.40
2017-11-04T16:47:40.980Z,6.40
2017-11-04T16:49:43.632Z,5.97
2017-11-04T16:51:46.322Z,8.33
2017-11-04T16:53:48.996Z,11.73
2017-11-04T16:55:51.646Z,7.17
2017-11-04T16:57:54.319Z,9.67
2017-11-04T16:59:57.035Z,7.03
2017-11-04T17:01:59.733Z,6.50
2017-11-04T17:04:02.375Z,7.93
2017-11-04T17:06:05.034Z,7.30
2017-11-04T17:08:07.698Z,8.20
2017-11-04T17:10:10.340Z,8.83
2017-11-04T17:12:13.003Z,6.70
2017-11-04T17:14:16.451Z,7.10
2017-11-04T17:16:19.146Z,6.70
2017-11-04T17:18:21.796Z,6.00
2017-11-04T17:20:25.262Z,9.20
2017-11-04T17:22:27.927Z,7.27
2017-11-04T17:24:30.591Z,12.63
2017-11-04T17:26:34.188Z,7.40
2017-11-04T17:28:37.597Z,11.17
2017-11-04T17:30:40.252Z,6.63
2017-11-04T17:32:43.694Z,6.17
2017-11-04T17:34:46.325Z,7.00
2017-11-04T17:36:49.742Z,6.30
2017-11-04T17:38:52.428Z,9.00
2017-11-04T17:40:55.096Z,6.40
2017-11-04T17:42:57.764Z,8.83
2017-11-04T17:45:00.502Z,8.23
2017-11-04T17:47:03.220Z,7.90
2017-11-04T17:49:05.898Z,7.97
2017-11-04T17:51:08.565Z,8.40
2017-11-04T17:53:11.225Z,8.60
2017-11-04T17:55:14.642Z,7.53
2017-11-04T17:57:17.328Z,13.47
2017-11-04T17:59:19.977Z,10.40
2017-11-04T18:01:22.658Z,9.47
2017-11-04T18:03:25.360Z,9.13
2017-11-04T18:05:28.182Z,12.60
2017-11-04T18:07:30.848Z,13.50
2017-11-04T18:09:33.608Z,11.30
2017-11-04T18:11:36.257Z,14.47
2017-11-04T18:13:38.950Z,10.13
2017-11-04T18:15:41.606Z,11.40
2017-11-04T18:17:44.254Z,9.47
2017-11-04T18:19:47.750Z,11.63
2017-11-04T18:21:51.170Z,13.13
2017-11-04T18:23:53.816Z,11.30
2017-11-04T18:25:57.281Z,87.33
2017-11-04T18:27:59.943Z,25.20
2017-11-04T18:30:02.588Z,27.03
2017-11-04T18:32:05.273Z,31.47
2017-11-04T18:34:07.927Z,21.30
2017-11-04T18:36:11.441Z,12.57
2017-11-04T18:38:14.189Z,28.63
2017-11-04T18:40:17.625Z,18.80
2017-11-04T18:42:20.269Z,10.53
2017-11-04T18:44:22.974Z,21.50
2017-11-04T18:46:25.637Z,12.90
2017-11-04T18:48:28.281Z,10.83
2017-11-04T18:50:31.733Z,9.20
2017-11-04T18:52:34.387Z,11.57
2017-11-04T18:54:37.192Z,8.93
2017-11-04T18:56:39.939Z,13.27
2017-11-04T18:58:42.594Z,11.27
2017-11-04T19:00:46.046Z,10.47
2017-11-04T19:02:48.722Z,22.97
2017-11-04T19:04:51.362Z,12.87
2017-11-04T19:06:54.035Z,12.97
2017-11-04T19:08:56.719Z,11.43
2017-11-04T19:10:59.371Z,10.57
2017-11-04T19:13:02.815Z,13.20
2017-11-04T19:15:05.491Z,13.13
2017-11-04T19:17:08.138Z,13.00
2017-11-04T19:19:10.789Z,16.00
2017-11-04T19:21:14.229Z,19.40
2017-11-04T19:23:16.884Z,11.57
2017-11-04T19:25:19.548Z,12.83
2017-11-04T19:27:22.237Z,15.00
2017-11-04T19:29:24.890Z,17.70
2017-11-04T19:31:27.561Z,15.50
2017-11-04T19:33:31.016Z,16.90
2017-11-04T19:35:33.657Z,12.10
2017-11-04T19:37:36.302Z,15.30
2017-11-04T19:39:39.831Z,15.73
2017-11-04T19:41:42.503Z,13.00
2017-11-04T19:43:45.147Z,12.23
2017-11-04T19:45:48.615Z,13.43
2017-11-04T19:47:51.267Z,15.80
2017-11-04T19:49:53.939Z,13.83
2017-11-04T19:51:56.706Z,12.83
2017-11-04T19:53:59.379Z,11.63
2017-11-04T19:56:02.233Z,15.70
2017-11-04T19:58:05.688Z,12.83
2017-11-04T20:00:08.355Z,13.50
2017-11-04T20:02:11.765Z,13.63
2017-11-04T20:04:14.442Z,12.13
2017-11-04T20:06:17.099Z,14.30
2017-11-04T20:08:19.759Z,14.30
2017-11-04T20:10:22.447Z,12.97
2017-11-04T20:12:25.139Z,16.90
2017-11-04T20:14:27.826Z,26.37
2017-11-04T20:16:31.294Z,12.40
2017-11-04T20:18:33.979Z,15.60
2017-11-04T20:20:36.724Z,17.73
2017-11-04T20:22:39.432Z,14.53
2017-11-04T20:24:42.089Z,16.30
2017-11-04T20:26:44.747Z,13.97
2017-11-04T20:28:47.474Z,14.77
2017-11-04T20:30:50.212Z,18.37
2017-11-04T20:32:52.887Z,20.30
2017-11-04T20:34:55.920Z,17.53
2017-11-04T20:36:58.765Z,15.13
2017-11-04T20:39:01.427Z,15.30
2017-11-04T20:41:04.215Z,14.30
2017-11-04T20:43:06.891Z,16.77
2017-11-04T20:45:09.554Z,15.03
2017-11-04T20:47:12.261Z,15.90
2017-11-04T20:49:14.910Z,14.90
2017-11-04T20:51:17.596Z,19.53
2017-11-04T20:53:20.294Z,17.53
2017-11-04T20:55:22.946Z,24.17
2017-11-04T20:57:25.823Z,21.90
2017-11-04T20:59:29.300Z,19.20
2017-11-04T21:01:31.964Z,20.37
2017-11-04T21:03:35.380Z,16.33
2017-11-04T21:05:38.164Z,15.93
2017-11-04T21:07:40.959Z,18.10
2017-11-04T21:09:43.629Z,18.50
2017-11-04T21:11:46.313Z,21.27
2017-11-04T21:13:48.972Z,16.63
2017-11-04T21:15:51.645Z,15.40
2017-11-04T21:17:54.332Z,16.10
2017-11-04T21:19:57.025Z,16.20
2017-11-04T21:21:59.687Z,18.40
2017-11-04T21:24:02.493Z,17.57
2017-11-04T21:26:05.151Z,18.07
2017-11-04T21:28:07.818Z,19.77
2017-11-04T21:30:10.503Z,18.53
2017-11-04T21:32:13.175Z,19.97
2017-11-04T21:34:15.832Z,20.73
2017-11-04T21:36:18.514Z,20.10
2017-11-04T21:38:21.173Z,22.80
2017-11-04T21:40:23.859Z,17.97
2017-11-04T21:42:26.539Z,21.40
2017-11-04T21:44:29.223Z,21.17
2017-11-04T21:46:31.899Z,22.80
2017-11-04T21:48:34.599Z,17.93
2017-11-04T21:50:37.336Z,20.20
2017-11-04T21:52:40.061Z,18.63
2017-11-04T21:54:42.780Z,16.50
2017-11-04T21:56:46.329Z,18.50
2017-11-04T21:58:49.033Z,21.07
2017-11-04T22:00:51.714Z,19.83
2017-11-04T22:02:55.162Z,20.20
2017-11-04T22:04:57.817Z,24.57
2017-11-04T22:07:00.604Z,24.40
2017-11-04T22:09:03.528Z,27.17
2017-11-04T22:11:06.241Z,18.20
2017-11-04T22:13:08.927Z,24.23
2017-11-04T22:15:12.598Z,19.00
2017-11-04T22:17:16.025Z,22.50
2017-11-04T22:19:18.710Z,23.47
2017-11-04T22:21:21.650Z,19.97
2017-11-04T22:23:25.075Z,16.97
2017-11-04T22:25:27.754Z,15.50
2017-11-04T22:27:30.413Z,15.33
2017-11-04T22:29:33.856Z,16.30
2017-11-04T22:31:36.560Z,17.33
2017-11-04T22:33:39.242Z,22.17
2017-11-04T22:35:42.699Z,19.57
2017-11-04T22:37:46.520Z,23.80
2017-11-04T22:39:49.329Z,20.20
2017-11-04T22:41:52.762Z,22.37
2017-11-04T22:43:55.490Z,28.83
2017-11-04T22:45:58.149Z,24.00
2017-11-04T22:48:00.877Z,21.40
2017-11-04T22:50:03.763Z,24.43
2017-11-04T22:52:06.487Z,25.40
2017-11-04T22:54:09.138Z,29.50
2017-11-04T22:56:11.809Z,25.77
2017-11-04T22:58:14.502Z,25.90
2017-11-04T23:00:17.186Z,23.20
2017-11-04T23:02:19.865Z,21.10
2017-11-04T23:04:22.545Z,29.00
2017-11-04T23:06:25.211Z,28.90
2017-11-04T23:08:27.899Z,25.40
2017-11-04T23:10:30.744Z,25.80
2017-11-04T23:12:33.414Z,26.53
2017-11-04T23:14:36.094Z,27.27
2017-11-04T23:16:38.797Z,33.10
2017-11-04T23:18:41.500Z,32.33
2017-11-04T23:20:44.961Z,28.67
2017-11-04T23:22:47.614Z,28.10
2017-11-04T23:24:50.279Z,31.33
2017-11-04T23:26:52.966Z,38.30
2017-11-04T23:28:55.627Z,32.93
2017-11-04T23:30:58.329Z,30.17
2017-11-04T23:33:01.032Z,31.47
2017-11-04T23:35:03.865Z,31.73
2017-11-04T23:37:06.522Z,30.50
2017-11-04T23:39:09.226Z,31.03
2017-11-04T23:41:11.912Z,36.03
2017-11-04T23:43:15.033Z,32.40
2017-11-04T23:45:17.896Z,32.90
2017-11-04T23:47:20.580Z,34.10
2017-11-04T23:49:23.315Z,34.83
2017-11-04T23:51:25.999Z,39.50
2017-11-04T23:53:28.937Z,40.27
2017-11-04T23:55:32.366Z,40.17
2017-11-04T23:57:35.085Z,40.27
2017-11-04T23:59:37.762Z,41.23
